CDC8802 ZPLJ-ZGCJ
Flight info
| Callsign | CDC8802 |
|---|---|
| Flight time | 1h 14m |
| Altitude | 33100 |
| Route | PAN H89 LPS A581 QNX B330 P654 H166 P661 |
| Aircraft | A320/M-SDE2E3GHIJ3J4J5LM1ORWXY/LB1D1 |
Departure
| Time | 2026-04-29 13:05 |
|---|---|
| Airport | Lijiang Sanyi International Airport (ZPLJ) |
Arrival
| Time | 2026-04-29 14:20 |
|---|---|
| Airport | Huaihua Zhijiang Airport (ZGCJ) |
| Time | Latitude | Longitude | Altitude | Speed | Heading |
|---|---|---|---|---|---|
| 2026-04-29 12:44 | 26.66973 | 100.24536 | 7353 ft | 0 kts | 194° |
| 2026-04-29 12:56 | 26.66974 | 100.24536 | 7353 ft | 0 kts | 194° |
| 2026-04-29 12:57 | 26.66986 | 100.24540 | 7353 ft | 4 kts | 201° |
| 2026-04-29 12:58 | 26.67008 | 100.24555 | 7353 ft | 4 kts | 232° |
| 2026-04-29 12:58 | 26.67019 | 100.24580 | 7353 ft | 4 kts | 270° |
| 2026-04-29 12:58 | 26.67017 | 100.24598 | 7354 ft | 0 kts | 286° |
| 2026-04-29 13:00 | 26.67018 | 100.24594 | 7353 ft | 3 kts | 286° |
| 2026-04-29 13:00 | 26.67031 | 100.24545 | 7353 ft | 11 kts | 286° |
| 2026-04-29 13:00 | 26.67047 | 100.24481 | 7353 ft | 9 kts | 287° |
| 2026-04-29 13:00 | 26.67090 | 100.24452 | 7353 ft | 7 kts | 1° |
| 2026-04-29 13:01 | 26.67193 | 100.24485 | 7353 ft | 17 kts | 17° |
| 2026-04-29 13:01 | 26.67336 | 100.24534 | 7353 ft | 25 kts | 17° |
| 2026-04-29 13:01 | 26.67505 | 100.24591 | 7352 ft | 26 kts | 17° |
| 2026-04-29 13:01 | 26.67618 | 100.24630 | 7352 ft | 26 kts | 17° |
| 2026-04-29 13:02 | 26.67849 | 100.24708 | 7355 ft | 26 kts | 17° |
| 2026-04-29 13:02 | 26.67964 | 100.24747 | 7353 ft | 26 kts | 17° |
| 2026-04-29 13:02 | 26.68138 | 100.24807 | 7355 ft | 26 kts | 17° |
| 2026-04-29 13:02 | 26.68313 | 100.24866 | 7353 ft | 26 kts | 17° |
| 2026-04-29 13:03 | 26.68490 | 100.24927 | 7353 ft | 27 kts | 17° |
| 2026-04-29 13:03 | 26.68668 | 100.24987 | 7353 ft | 27 kts | 17° |
| 2026-04-29 13:03 | 26.68898 | 100.25066 | 7355 ft | 22 kts | 17° |
| 2026-04-29 13:03 | 26.68945 | 100.25041 | 7353 ft | 11 kts | 302° |
| 2026-04-29 13:04 | 26.68972 | 100.24928 | 7353 ft | 13 kts | 250° |
| 2026-04-29 13:04 | 26.68919 | 100.24889 | 7355 ft | 15 kts | 197° |
| 2026-04-29 13:04 | 26.68733 | 100.24826 | 7352 ft | 56 kts | 197° |
| 2026-04-29 13:04 | 26.68129 | 100.24621 | 7354 ft | 122 kts | 197° |
| 2026-04-29 13:05 | 26.67135 | 100.24285 | 7357 ft | 174 kts | 197° |
| 2026-04-29 13:05 | 26.65901 | 100.23866 | 7862 ft | 186 kts | 196° |
| 2026-04-29 13:05 | 26.64683 | 100.23450 | 8711 ft | 183 kts | 196° |
| 2026-04-29 13:05 | 26.63451 | 100.23031 | 9376 ft | 187 kts | 196° |
| 2026-04-29 13:06 | 26.62143 | 100.22586 | 9573 ft | 207 kts | 196° |
| 2026-04-29 13:06 | 26.60697 | 100.22094 | 9717 ft | 228 kts | 197° |
| 2026-04-29 13:06 | 26.59098 | 100.21553 | 9868 ft | 253 kts | 197° |
| 2026-04-29 13:06 | 26.57336 | 100.20958 | 10136 ft | 276 kts | 197° |
| 2026-04-29 13:07 | 26.55441 | 100.20317 | 10401 ft | 300 kts | 197° |
| 2026-04-29 13:07 | 26.53341 | 100.19603 | 10634 ft | 324 kts | 197° |
| 2026-04-29 13:07 | 26.51136 | 100.18851 | 10822 ft | 347 kts | 197° |
| 2026-04-29 13:07 | 26.48726 | 100.18027 | 11054 ft | 366 kts | 197° |
| 2026-04-29 13:08 | 26.46253 | 100.17395 | 11612 ft | 374 kts | 183° |
| 2026-04-29 13:08 | 26.43689 | 100.17858 | 12309 ft | 379 kts | 159° |
| 2026-04-29 13:08 | 26.41498 | 100.19498 | 12988 ft | 387 kts | 135° |
| 2026-04-29 13:08 | 26.40064 | 100.22051 | 13599 ft | 396 kts | 110° |
| 2026-04-29 13:09 | 26.39608 | 100.25095 | 14172 ft | 403 kts | 93° |
| 2026-04-29 13:09 | 26.39506 | 100.28235 | 14739 ft | 408 kts | 92° |
| 2026-04-29 13:09 | 26.39630 | 100.31413 | 15257 ft | 414 kts | 79° |
| 2026-04-29 13:09 | 26.40330 | 100.34548 | 15779 ft | 419 kts | 75° |
| 2026-04-29 13:10 | 26.40999 | 100.37735 | 16299 ft | 424 kts | 77° |
| 2026-04-29 13:10 | 26.41721 | 100.40948 | 16795 ft | 429 kts | 72° |
| 2026-04-29 13:10 | 26.42927 | 100.44001 | 17125 ft | 433 kts | 57° |
| 2026-04-29 13:10 | 26.44826 | 100.46605 | 17570 ft | 434 kts | 44° |
| 2026-04-29 13:11 | 26.46932 | 100.49039 | 18107 ft | 436 kts | 43° |
| 2026-04-29 13:11 | 26.49061 | 100.51464 | 18588 ft | 440 kts | 43° |
| 2026-04-29 13:11 | 26.51206 | 100.53915 | 19081 ft | 443 kts | 43° |
| 2026-04-29 13:11 | 26.53354 | 100.56399 | 19570 ft | 445 kts | 44° |
| 2026-04-29 13:12 | 26.55494 | 100.58910 | 20003 ft | 448 kts | 44° |
| 2026-04-29 13:12 | 26.57634 | 100.61450 | 20470 ft | 450 kts | 44° |
| 2026-04-29 13:12 | 26.59772 | 100.63999 | 20957 ft | 451 kts | 45° |
| 2026-04-29 13:12 | 26.61858 | 100.66639 | 21367 ft | 455 kts | 51° |
| 2026-04-29 13:13 | 26.63547 | 100.69649 | 21788 ft | 460 kts | 62° |
| 2026-04-29 13:13 | 26.64739 | 100.72973 | 22191 ft | 464 kts | 72° |
| 2026-04-29 13:13 | 26.65383 | 100.76522 | 22587 ft | 467 kts | 83° |
| 2026-04-29 13:13 | 26.65443 | 100.80155 | 22977 ft | 470 kts | 94° |
| 2026-04-29 13:14 | 26.65030 | 100.83781 | 23340 ft | 472 kts | 98° |
| 2026-04-29 13:14 | 26.64566 | 100.87414 | 23682 ft | 474 kts | 98° |
| 2026-04-29 13:14 | 26.64094 | 100.91065 | 24042 ft | 475 kts | 98° |
| 2026-04-29 13:14 | 26.63619 | 100.94718 | 24341 ft | 476 kts | 98° |
| 2026-04-29 13:15 | 26.63150 | 100.98375 | 24561 ft | 476 kts | 98° |
| 2026-04-29 13:15 | 26.62679 | 101.02055 | 24771 ft | 481 kts | 98° |
| 2026-04-29 13:15 | 26.62205 | 101.05768 | 25033 ft | 485 kts | 98° |
| 2026-04-29 13:15 | 26.61727 | 101.09493 | 25326 ft | 485 kts | 98° |
| 2026-04-29 13:16 | 26.61243 | 101.13248 | 25572 ft | 488 kts | 98° |
| 2026-04-29 13:16 | 26.60764 | 101.17002 | 25852 ft | 491 kts | 98° |
| 2026-04-29 13:16 | 26.60283 | 101.20793 | 26105 ft | 494 kts | 98° |
| 2026-04-29 13:16 | 26.59789 | 101.24605 | 26389 ft | 496 kts | 98° |
| 2026-04-29 13:17 | 26.59290 | 101.28425 | 26641 ft | 499 kts | 98° |
| 2026-04-29 13:17 | 26.58786 | 101.32272 | 26901 ft | 501 kts | 98° |
| 2026-04-29 13:17 | 26.58283 | 101.36130 | 27175 ft | 503 kts | 98° |
| 2026-04-29 13:17 | 26.57777 | 101.40010 | 27438 ft | 506 kts | 98° |
| 2026-04-29 13:18 | 26.57268 | 101.43902 | 27682 ft | 508 kts | 98° |
| 2026-04-29 13:18 | 26.56759 | 101.47820 | 27944 ft | 510 kts | 98° |
| 2026-04-29 13:18 | 26.56247 | 101.51745 | 28246 ft | 511 kts | 98° |
| 2026-04-29 13:18 | 26.55732 | 101.55665 | 28642 ft | 510 kts | 99° |
| 2026-04-29 13:19 | 26.55215 | 101.59579 | 29023 ft | 509 kts | 99° |
| 2026-04-29 13:19 | 26.54698 | 101.63481 | 29395 ft | 508 kts | 99° |
| 2026-04-29 13:19 | 26.54179 | 101.67383 | 29750 ft | 508 kts | 99° |
| 2026-04-29 13:19 | 26.53656 | 101.71290 | 30084 ft | 508 kts | 99° |
| 2026-04-29 13:20 | 26.53135 | 101.75184 | 30457 ft | 507 kts | 99° |
| 2026-04-29 13:20 | 26.52825 | 101.79103 | 30808 ft | 508 kts | 91° |
| 2026-04-29 13:20 | 26.53001 | 101.83033 | 31138 ft | 507 kts | 82° |
| 2026-04-29 13:20 | 26.53537 | 101.86925 | 31484 ft | 506 kts | 80° |
| 2026-04-29 13:21 | 26.54089 | 101.90806 | 31858 ft | 506 kts | 80° |
| 2026-04-29 13:21 | 26.54629 | 101.94629 | 32227 ft | 505 kts | 80° |
| 2026-04-29 13:21 | 26.55180 | 101.98558 | 32589 ft | 505 kts | 80° |
| 2026-04-29 13:21 | 26.55715 | 102.02375 | 32934 ft | 504 kts | 79° |
| 2026-04-29 13:22 | 26.56263 | 102.06296 | 33227 ft | 505 kts | 79° |
| 2026-04-29 13:22 | 26.57352 | 102.14071 | 33320 ft | 509 kts | 79° |
| 2026-04-29 13:23 | 26.58434 | 102.21890 | 33318 ft | 509 kts | 79° |
| 2026-04-29 13:23 | 26.59506 | 102.29662 | 33320 ft | 510 kts | 79° |
| 2026-04-29 13:24 | 26.60588 | 102.37486 | 33320 ft | 510 kts | 79° |
| 2026-04-29 13:24 | 26.61667 | 102.45333 | 33321 ft | 511 kts | 79° |
| 2026-04-29 13:25 | 26.62742 | 102.53174 | 33318 ft | 511 kts | 79° |
| 2026-04-29 13:25 | 26.64331 | 102.64916 | 33306 ft | 511 kts | 79° |
| 2026-04-29 13:26 | 26.65376 | 102.72789 | 33301 ft | 511 kts | 79° |
| 2026-04-29 13:26 | 26.66428 | 102.80654 | 33317 ft | 513 kts | 79° |
| 2026-04-29 13:27 | 26.67484 | 102.88537 | 33323 ft | 514 kts | 79° |
| 2026-04-29 13:27 | 26.68533 | 102.96429 | 33317 ft | 513 kts | 79° |
| 2026-04-29 13:28 | 26.69586 | 103.04332 | 33327 ft | 514 kts | 79° |
| 2026-04-29 13:28 | 26.70634 | 103.12244 | 33324 ft | 514 kts | 79° |
| 2026-04-29 13:29 | 26.71678 | 103.20158 | 33319 ft | 514 kts | 79° |
| 2026-04-29 13:29 | 26.72708 | 103.28078 | 33318 ft | 515 kts | 79° |
| 2026-04-29 13:30 | 26.73743 | 103.35999 | 33315 ft | 515 kts | 78° |
| 2026-04-29 13:30 | 26.74777 | 103.43945 | 33319 ft | 516 kts | 78° |
| 2026-04-29 13:31 | 26.75830 | 103.51892 | 33318 ft | 516 kts | 78° |
| 2026-04-29 13:31 | 26.76926 | 103.59833 | 33319 ft | 517 kts | 78° |
| 2026-04-29 13:32 | 26.78011 | 103.67764 | 33319 ft | 517 kts | 78° |
| 2026-04-29 13:32 | 26.79076 | 103.75708 | 33319 ft | 518 kts | 78° |
| 2026-04-29 13:33 | 26.80137 | 103.83687 | 33318 ft | 518 kts | 78° |
| 2026-04-29 13:33 | 26.81188 | 103.91616 | 33316 ft | 518 kts | 78° |
| 2026-04-29 13:34 | 26.82247 | 103.99563 | 33318 ft | 518 kts | 78° |
| 2026-04-29 13:34 | 26.83293 | 104.07418 | 33318 ft | 520 kts | 78° |
| 2026-04-29 13:35 | 26.84347 | 104.15424 | 33313 ft | 520 kts | 78° |
| 2026-04-29 13:35 | 26.85332 | 104.23411 | 33313 ft | 523 kts | 82° |
| 2026-04-29 13:36 | 26.84888 | 104.31561 | 33315 ft | 528 kts | 101° |
| 2026-04-29 13:36 | 26.82790 | 104.39444 | 33314 ft | 529 kts | 107° |
| 2026-04-29 13:37 | 26.80564 | 104.47305 | 33313 ft | 530 kts | 107° |
| 2026-04-29 13:37 | 26.78345 | 104.55146 | 33315 ft | 531 kts | 107° |
| 2026-04-29 13:38 | 26.76100 | 104.63016 | 33319 ft | 531 kts | 107° |
| 2026-04-29 13:38 | 26.73817 | 104.70862 | 33317 ft | 531 kts | 108° |
| 2026-04-29 13:39 | 26.71498 | 104.78714 | 33322 ft | 531 kts | 108° |
| 2026-04-29 13:39 | 26.69178 | 104.86558 | 33324 ft | 531 kts | 108° |
| 2026-04-29 13:40 | 26.66912 | 104.94427 | 33317 ft | 531 kts | 103° |
| 2026-04-29 13:40 | 26.66142 | 105.02576 | 33321 ft | 526 kts | 84° |
| 2026-04-29 13:41 | 26.67482 | 105.10503 | 33321 ft | 515 kts | 65° |
| 2026-04-29 13:41 | 26.70317 | 105.17791 | 33316 ft | 511 kts | 60° |
| 2026-04-29 13:42 | 26.73227 | 105.25049 | 33316 ft | 512 kts | 60° |
| 2026-04-29 13:42 | 26.76126 | 105.32319 | 33310 ft | 512 kts | 60° |
| 2026-04-29 13:43 | 26.79023 | 105.39579 | 33319 ft | 512 kts | 60° |
| 2026-04-29 13:43 | 26.81943 | 105.46875 | 33326 ft | 513 kts | 60° |
| 2026-04-29 13:44 | 26.84856 | 105.54165 | 33327 ft | 513 kts | 60° |
| 2026-04-29 13:44 | 26.87760 | 105.61469 | 33328 ft | 513 kts | 60° |
| 2026-04-29 13:45 | 26.90656 | 105.68779 | 33331 ft | 514 kts | 60° |
| 2026-04-29 13:45 | 26.93559 | 105.76111 | 33332 ft | 514 kts | 60° |
| 2026-04-29 13:46 | 26.96459 | 105.83427 | 33330 ft | 514 kts | 60° |
| 2026-04-29 13:46 | 26.99349 | 105.90752 | 33333 ft | 514 kts | 60° |
| 2026-04-29 13:47 | 27.00569 | 105.94548 | 33331 ft | 522 kts | 71° |
| 2026-04-29 13:47 | 27.01153 | 105.98585 | 33328 ft | 529 kts | 83° |
| 2026-04-29 13:47 | 27.00240 | 106.06735 | 33322 ft | 536 kts | 108° |
| 2026-04-29 13:48 | 26.98780 | 106.10566 | 33320 ft | 536 kts | 120° |
| 2026-04-29 13:48 | 26.96731 | 106.14041 | 33318 ft | 533 kts | 129° |
| 2026-04-29 13:48 | 26.92258 | 106.20683 | 33318 ft | 534 kts | 129° |
| 2026-04-29 13:49 | 26.88508 | 106.26214 | 33322 ft | 534 kts | 130° |
| 2026-04-29 13:49 | 26.84035 | 106.32804 | 33335 ft | 533 kts | 129° |
| 2026-04-29 13:50 | 26.79580 | 106.39365 | 33341 ft | 532 kts | 130° |
| 2026-04-29 13:50 | 26.75104 | 106.45961 | 33347 ft | 532 kts | 129° |
| 2026-04-29 13:51 | 26.70598 | 106.52587 | 33348 ft | 531 kts | 130° |
| 2026-04-29 13:51 | 26.66115 | 106.59140 | 33349 ft | 530 kts | 130° |
| 2026-04-29 13:52 | 26.61626 | 106.65686 | 33345 ft | 530 kts | 130° |
| 2026-04-29 13:52 | 26.57173 | 106.72191 | 33349 ft | 530 kts | 129° |
| 2026-04-29 13:53 | 26.53033 | 106.78945 | 33347 ft | 532 kts | 118° |
| 2026-04-29 13:53 | 26.50417 | 106.86719 | 33340 ft | 532 kts | 105° |
| 2026-04-29 13:54 | 26.49419 | 106.94860 | 33336 ft | 528 kts | 86° |
| 2026-04-29 13:54 | 26.50502 | 107.02823 | 33336 ft | 519 kts | 68° |
| 2026-04-29 13:55 | 26.52970 | 107.10414 | 33335 ft | 516 kts | 65° |
| 2026-04-29 13:55 | 26.55428 | 107.17891 | 33337 ft | 517 kts | 65° |
| 2026-04-29 13:56 | 26.57887 | 107.25448 | 33336 ft | 517 kts | 65° |
| 2026-04-29 13:56 | 26.60343 | 107.33001 | 33335 ft | 517 kts | 65° |
| 2026-04-29 13:57 | 26.62790 | 107.40562 | 33331 ft | 517 kts | 65° |
| 2026-04-29 13:57 | 26.65232 | 107.48111 | 33328 ft | 517 kts | 65° |
| 2026-04-29 13:58 | 26.67675 | 107.55675 | 33331 ft | 517 kts | 65° |
| 2026-04-29 13:58 | 26.70117 | 107.63243 | 33329 ft | 517 kts | 66° |
| 2026-04-29 13:59 | 26.72556 | 107.70816 | 33332 ft | 517 kts | 66° |
| 2026-04-29 13:59 | 26.74986 | 107.78395 | 33332 ft | 518 kts | 66° |
| 2026-04-29 14:00 | 26.77420 | 107.85978 | 33267 ft | 518 kts | 66° |
| 2026-04-29 14:00 | 26.78639 | 107.89775 | 33009 ft | 518 kts | 66° |
| 2026-04-29 14:00 | 26.79859 | 107.93573 | 32755 ft | 519 kts | 66° |
| 2026-04-29 14:01 | 26.81077 | 107.97373 | 32505 ft | 520 kts | 66° |
| 2026-04-29 14:01 | 26.82299 | 108.01194 | 32252 ft | 521 kts | 66° |
| 2026-04-29 14:01 | 26.83520 | 108.05013 | 32003 ft | 523 kts | 67° |
| 2026-04-29 14:01 | 26.84748 | 108.08862 | 31753 ft | 526 kts | 67° |
| 2026-04-29 14:02 | 26.85978 | 108.12730 | 31504 ft | 527 kts | 67° |
| 2026-04-29 14:02 | 26.87203 | 108.16591 | 31256 ft | 529 kts | 68° |
| 2026-04-29 14:02 | 26.88438 | 108.20485 | 31003 ft | 530 kts | 68° |
| 2026-04-29 14:02 | 26.89671 | 108.24378 | 30753 ft | 532 kts | 68° |
| 2026-04-29 14:03 | 26.90910 | 108.28292 | 30499 ft | 533 kts | 68° |
| 2026-04-29 14:03 | 26.92150 | 108.32201 | 30244 ft | 534 kts | 68° |
| 2026-04-29 14:03 | 26.93395 | 108.36136 | 30007 ft | 536 kts | 68° |
| 2026-04-29 14:03 | 26.94641 | 108.40075 | 29145 ft | 537 kts | 68° |
| 2026-04-29 14:04 | 26.95902 | 108.44056 | 27703 ft | 547 kts | 68° |
| 2026-04-29 14:04 | 26.97168 | 108.48055 | 26240 ft | 541 kts | 68° |
| 2026-04-29 14:04 | 26.98408 | 108.51993 | 24811 ft | 530 kts | 69° |
| 2026-04-29 14:04 | 26.99615 | 108.55843 | 23416 ft | 518 kts | 69° |
| 2026-04-29 14:05 | 27.00778 | 108.59560 | 22079 ft | 507 kts | 69° |
| 2026-04-29 14:05 | 27.01930 | 108.63243 | 21030 ft | 493 kts | 69° |
| 2026-04-29 14:05 | 27.03080 | 108.66914 | 20062 ft | 492 kts | 69° |
| 2026-04-29 14:05 | 27.04195 | 108.70478 | 19125 ft | 490 kts | 69° |
| 2026-04-29 14:06 | 27.05321 | 108.74062 | 18395 ft | 483 kts | 69° |
| 2026-04-29 14:06 | 27.06425 | 108.77578 | 17745 ft | 475 kts | 69° |
| 2026-04-29 14:06 | 27.07506 | 108.81041 | 16860 ft | 462 kts | 69° |
| 2026-04-29 14:06 | 27.08551 | 108.84404 | 15873 ft | 446 kts | 69° |
| 2026-04-29 14:07 | 27.09539 | 108.87591 | 15268 ft | 421 kts | 69° |
| 2026-04-29 14:07 | 27.10490 | 108.90652 | 14607 ft | 414 kts | 69° |
| 2026-04-29 14:07 | 27.11442 | 108.93699 | 13979 ft | 412 kts | 69° |
| 2026-04-29 14:07 | 27.12391 | 108.96724 | 13342 ft | 409 kts | 69° |
| 2026-04-29 14:08 | 27.13327 | 108.99715 | 12716 ft | 403 kts | 69° |
| 2026-04-29 14:08 | 27.14246 | 109.02668 | 12084 ft | 399 kts | 70° |
| 2026-04-29 14:08 | 27.15147 | 109.05578 | 11550 ft | 391 kts | 70° |
| 2026-04-29 14:08 | 27.16020 | 109.08404 | 11412 ft | 373 kts | 69° |
| 2026-04-29 14:09 | 27.16849 | 109.11099 | 11284 ft | 356 kts | 69° |
| 2026-04-29 14:09 | 27.17641 | 109.13661 | 11160 ft | 340 kts | 69° |
| 2026-04-29 14:09 | 27.18403 | 109.16119 | 11033 ft | 327 kts | 69° |
| 2026-04-29 14:09 | 27.19133 | 109.18480 | 10904 ft | 315 kts | 69° |
| 2026-04-29 14:10 | 27.19837 | 109.20760 | 10778 ft | 303 kts | 69° |
| 2026-04-29 14:10 | 27.20517 | 109.22965 | 10562 ft | 295 kts | 69° |
| 2026-04-29 14:10 | 27.21178 | 109.25124 | 10396 ft | 290 kts | 69° |
| 2026-04-29 14:10 | 27.21830 | 109.27252 | 10223 ft | 287 kts | 69° |
| 2026-04-29 14:11 | 27.22483 | 109.29373 | 10092 ft | 285 kts | 69° |
| 2026-04-29 14:11 | 27.23135 | 109.31474 | 9877 ft | 286 kts | 69° |
| 2026-04-29 14:11 | 27.23791 | 109.33599 | 9407 ft | 286 kts | 69° |
| 2026-04-29 14:11 | 27.24431 | 109.35686 | 9122 ft | 280 kts | 70° |
| 2026-04-29 14:12 | 27.25061 | 109.37741 | 8697 ft | 276 kts | 70° |
| 2026-04-29 14:12 | 27.25689 | 109.39748 | 8031 ft | 270 kts | 66° |
| 2026-04-29 14:12 | 27.26614 | 109.41569 | 7339 ft | 268 kts | 52° |
| 2026-04-29 14:12 | 27.27902 | 109.43063 | 6655 ft | 265 kts | 41° |
| 2026-04-29 14:13 | 27.29215 | 109.44368 | 6503 ft | 243 kts | 41° |
| 2026-04-29 14:13 | 27.30437 | 109.45589 | 6418 ft | 221 kts | 41° |
| 2026-04-29 14:13 | 27.31554 | 109.46711 | 6329 ft | 217 kts | 42° |
| 2026-04-29 14:13 | 27.32661 | 109.47847 | 6239 ft | 215 kts | 47° |
| 2026-04-29 14:14 | 27.33339 | 109.49318 | 6130 ft | 215 kts | 79° |
| 2026-04-29 14:14 | 27.33183 | 109.50993 | 5878 ft | 223 kts | 112° |
| 2026-04-29 14:14 | 27.32305 | 109.52453 | 5531 ft | 228 kts | 125° |
| 2026-04-29 14:14 | 27.31345 | 109.53877 | 5193 ft | 229 kts | 125° |
| 2026-04-29 14:15 | 27.30377 | 109.55314 | 4859 ft | 232 kts | 125° |
| 2026-04-29 14:15 | 27.29699 | 109.56916 | 4515 ft | 225 kts | 93° |
| 2026-04-29 14:15 | 27.30070 | 109.58531 | 4214 ft | 212 kts | 51° |
| 2026-04-29 14:15 | 27.31146 | 109.59600 | 3940 ft | 204 kts | 37° |
| 2026-04-29 14:16 | 27.32265 | 109.60515 | 3695 ft | 193 kts | 36° |
| 2026-04-29 14:16 | 27.33343 | 109.61377 | 3423 ft | 188 kts | 36° |
| 2026-04-29 14:16 | 27.34395 | 109.62224 | 3159 ft | 184 kts | 36° |
| 2026-04-29 14:16 | 27.35410 | 109.63050 | 2908 ft | 175 kts | 36° |
| 2026-04-29 14:17 | 27.36355 | 109.63824 | 2687 ft | 162 kts | 36° |
| 2026-04-29 14:17 | 27.37239 | 109.64552 | 2470 ft | 153 kts | 36° |
| 2026-04-29 14:17 | 27.38079 | 109.65247 | 2264 ft | 148 kts | 37° |
| 2026-04-29 14:17 | 27.38884 | 109.65916 | 2084 ft | 141 kts | 37° |
| 2026-04-29 14:18 | 27.39666 | 109.66563 | 1889 ft | 139 kts | 35° |
| 2026-04-29 14:18 | 27.40443 | 109.67196 | 1713 ft | 138 kts | 36° |
| 2026-04-29 14:18 | 27.41209 | 109.67840 | 1512 ft | 137 kts | 38° |
| 2026-04-29 14:19 | 27.42636 | 109.69045 | 1148 ft | 135 kts | 37° |
| 2026-04-29 14:19 | 27.43393 | 109.69677 | 948 ft | 136 kts | 37° |
| 2026-04-29 14:19 | 27.44121 | 109.70297 | 843 ft | 124 kts | 37° |
| 2026-04-29 14:19 | 27.44685 | 109.70767 | 847 ft | 78 kts | 37° |
| 2026-04-29 14:20 | 27.44982 | 109.71013 | 851 ft | 31 kts | 36° |
| 2026-04-29 14:20 | 27.45090 | 109.71063 | 850 ft | 14 kts | 18° |
| 2026-04-29 14:20 | 27.45086 | 109.71102 | 847 ft | 7 kts | 205° |
| 2026-04-29 14:20 | 27.45013 | 109.71044 | 849 ft | 19 kts | 220° |
| 2026-04-29 14:21 | 27.44883 | 109.70929 | 839 ft | 26 kts | 216° |
| 2026-04-29 14:21 | 27.44734 | 109.70806 | 842 ft | 27 kts | 217° |
| 2026-04-29 14:21 | 27.44583 | 109.70680 | 838 ft | 27 kts | 217° |
| 2026-04-29 14:21 | 27.44436 | 109.70557 | 852 ft | 26 kts | 217° |
| 2026-04-29 14:22 | 27.44335 | 109.70463 | 848 ft | 10 kts | 248° |
| 2026-04-29 14:22 | 27.44359 | 109.70399 | 850 ft | 9 kts | 307° |
| 2026-04-29 14:22 | 27.44403 | 109.70334 | 853 ft | 14 kts | 306° |
| 2026-04-29 14:22 | 27.44433 | 109.70270 | 855 ft | 7 kts | 302° |
| 2026-04-29 14:23 | 27.44466 | 109.70220 | 857 ft | 4 kts | 307° |
| 2026-04-29 14:23 | 27.44471 | 109.70213 | 857 ft | 0 kts | 306° |
| 2026-04-29 14:23 | 27.44473 | 109.70211 | 853 ft | 0 kts | 306° |
| 2026-04-29 14:23 | 27.44474 | 109.70209 | 844 ft | 0 kts | 307° |